sensor_id;sensor_type;location;lat;lon;timestamp;P1;durP1;ratioP1;P2;durP2;ratioP2
58468;SDS011;44257;44.804;10.220;2023-05-10T00:00:15;13.85;;;9.43;;
58468;SDS011;44257;44.804;10.220;2023-05-10T00:02:41;12.55;;;8.23;;
58468;SDS011;44257;44.804;10.220;2023-05-10T00:05:08;12.32;;;8.95;;
58468;SDS011;44257;44.804;10.220;2023-05-10T00:07:34;13.98;;;9.32;;
58468;SDS011;44257;44.804;10.220;2023-05-10T00:10:00;12.60;;;8.45;;
58468;SDS011;44257;44.804;10.220;2023-05-10T00:12:25;14.52;;;8.88;;
58468;SDS011;44257;44.804;10.220;2023-05-10T00:14:51;14.25;;;8.88;;
58468;SDS011;44257;44.804;10.220;2023-05-10T00:17:17;13.13;;;8.85;;
58468;SDS011;44257;44.804;10.220;2023-05-10T00:19:43;15.02;;;9.45;;
58468;SDS011;44257;44.804;10.220;2023-05-10T00:22:08;14.38;;;8.88;;
58468;SDS011;44257;44.804;10.220;2023-05-10T00:24:35;14.60;;;8.95;;
58468;SDS011;44257;44.804;10.220;2023-05-10T00:27:01;12.45;;;8.45;;
58468;SDS011;44257;44.804;10.220;2023-05-10T00:29:29;12.55;;;8.65;;
58468;SDS011;44257;44.804;10.220;2023-05-10T00:31:54;12.35;;;8.57;;
58468;SDS011;44257;44.804;10.220;2023-05-10T00:34:21;13.60;;;8.95;;
58468;SDS011;44257;44.804;10.220;2023-05-10T00:36:47;15.07;;;9.30;;
58468;SDS011;44257;44.804;10.220;2023-05-10T00:39:13;14.73;;;9.45;;
58468;SDS011;44257;44.804;10.220;2023-05-10T00:41:38;14.15;;;10.13;;
58468;SDS011;44257;44.804;10.220;2023-05-10T00:44:05;14.10;;;9.30;;
58468;SDS011;44257;44.804;10.220;2023-05-10T00:46:31;14.95;;;10.30;;
58468;SDS011;44257;44.804;10.220;2023-05-10T00:48:57;17.52;;;10.38;;
58468;SDS011;44257;44.804;10.220;2023-05-10T00:51:24;14.88;;;10.63;;
58468;SDS011;44257;44.804;10.220;2023-05-10T00:53:50;15.98;;;10.68;;
58468;SDS011;44257;44.804;10.220;2023-05-10T00:56:17;17.02;;;11.88;;
58468;SDS011;44257;44.804;10.220;2023-05-10T00:58:43;15.80;;;11.25;;
58468;SDS011;44257;44.804;10.220;2023-05-10T01:01:09;20.65;;;12.32;;
58468;SDS011;44257;44.804;10.220;2023-05-10T01:03:36;19.55;;;11.48;;
58468;SDS011;44257;44.804;10.220;2023-05-10T01:06:02;17.33;;;12.02;;
58468;SDS011;44257;44.804;10.220;2023-05-10T01:08:28;17.80;;;12.70;;
58468;SDS011;44257;44.804;10.220;2023-05-10T01:10:54;20.08;;;12.52;;
58468;SDS011;44257;44.804;10.220;2023-05-10T01:13:31;18.55;;;12.38;;
58468;SDS011;44257;44.804;10.220;2023-05-10T01:16:02;20.85;;;12.88;;
58468;SDS011;44257;44.804;10.220;2023-05-10T01:18:29;19.50;;;12.70;;
58468;SDS011;44257;44.804;10.220;2023-05-10T01:35:02;19.40;;;12.88;;
58468;SDS011;44257;44.804;10.220;2023-05-10T01:37:56;21.52;;;13.00;;
58468;SDS011;44257;44.804;10.220;2023-05-10T01:43:16;20.47;;;13.23;;
58468;SDS011;44257;44.804;10.220;2023-05-10T01:48:15;19.38;;;13.80;;
58468;SDS011;44257;44.804;10.220;2023-05-10T01:50:43;21.42;;;13.82;;
58468;SDS011;44257;44.804;10.220;2023-05-10T01:53:11;20.63;;;14.20;;
58468;SDS011;44257;44.804;10.220;2023-05-10T01:55:46;19.48;;;13.52;;
58468;SDS011;44257;44.804;10.220;2023-05-10T01:58:17;20.67;;;14.85;;
58468;SDS011;44257;44.804;10.220;2023-05-10T02:00:52;19.70;;;14.07;;
58468;SDS011;44257;44.804;10.220;2023-05-10T02:03:20;21.05;;;15.27;;
58468;SDS011;44257;44.804;10.220;2023-05-10T02:05:48;18.30;;;13.23;;
58468;SDS011;44257;44.804;10.220;2023-05-10T02:08:15;18.10;;;12.15;;
58468;SDS011;44257;44.804;10.220;2023-05-10T02:10:44;20.95;;;12.65;;
58468;SDS011;44257;44.804;10.220;2023-05-10T02:13:11;16.20;;;11.55;;
58468;SDS011;44257;44.804;10.220;2023-05-10T02:15:39;17.73;;;12.07;;
58468;SDS011;44257;44.804;10.220;2023-05-10T02:18:07;17.27;;;12.30;;
58468;SDS011;44257;44.804;10.220;2023-05-10T02:20:35;17.13;;;11.32;;
58468;SDS011;44257;44.804;10.220;2023-05-10T02:23:03;16.95;;;11.07;;
58468;SDS011;44257;44.804;10.220;2023-05-10T02:25:29;19.13;;;11.43;;
58468;SDS011;44257;44.804;10.220;2023-05-10T02:27:57;14.68;;;10.93;;
58468;SDS011;44257;44.804;10.220;2023-05-10T02:30:27;14.60;;;10.65;;
58468;SDS011;44257;44.804;10.220;2023-05-10T02:32:54;12.75;;;10.07;;
58468;SDS011;44257;44.804;10.220;2023-05-10T02:35:23;14.23;;;10.57;;
58468;SDS011;44257;44.804;10.220;2023-05-10T02:37:50;14.07;;;10.93;;
58468;SDS011;44257;44.804;10.220;2023-05-10T02:40:17;14.02;;;10.43;;
58468;SDS011;44257;44.804;10.220;2023-05-10T02:42:44;13.77;;;9.68;;
58468;SDS011;44257;44.804;10.220;2023-05-10T02:45:15;15.65;;;9.80;;
58468;SDS011;44257;44.804;10.220;2023-05-10T02:47:45;15.73;;;10.63;;
58468;SDS011;44257;44.804;10.220;2023-05-10T02:50:11;13.07;;;9.90;;
58468;SDS011;44257;44.804;10.220;2023-05-10T02:52:40;13.45;;;10.02;;
58468;SDS011;44257;44.804;10.220;2023-05-10T02:55:11;14.15;;;10.30;;
58468;SDS011;44257;44.804;10.220;2023-05-10T02:57:46;12.95;;;9.40;;
58468;SDS011;44257;44.804;10.220;2023-05-10T03:00:16;15.68;;;9.73;;
58468;SDS011;44257;44.804;10.220;2023-05-10T03:02:42;12.68;;;9.07;;
58468;SDS011;44257;44.804;10.220;2023-05-10T03:05:08;13.38;;;8.32;;
58468;SDS011;44257;44.804;10.220;2023-05-10T03:07:34;11.85;;;8.30;;
58468;SDS011;44257;44.804;10.220;2023-05-10T03:10:01;14.07;;;8.68;;
58468;SDS011;44257;44.804;10.220;2023-05-10T03:15:50;14.40;;;8.20;;
58468;SDS011;44257;44.804;10.220;2023-05-10T03:21:02;10.05;;;7.07;;
58468;SDS011;44257;44.804;10.220;2023-05-10T03:23:35;12.98;;;7.90;;
58468;SDS011;44257;44.804;10.220;2023-05-10T03:26:07;9.27;;;7.05;;
58468;SDS011;44257;44.804;10.220;2023-05-10T03:28:34;11.32;;;7.78;;
58468;SDS011;44257;44.804;10.220;2023-05-10T03:31:03;10.88;;;7.18;;
58468;SDS011;44257;44.804;10.220;2023-05-10T03:33:32;10.32;;;7.38;;
58468;SDS011;44257;44.804;10.220;2023-05-10T03:35:58;10.25;;;7.22;;
58468;SDS011;44257;44.804;10.220;2023-05-10T03:38:25;11.45;;;7.70;;
58468;SDS011;44257;44.804;10.220;2023-05-10T03:40:51;13.25;;;7.00;;
58468;SDS011;44257;44.804;10.220;2023-05-10T03:43:16;9.15;;;7.25;;
58468;SDS011;44257;44.804;10.220;2023-05-10T03:45:42;12.60;;;7.50;;
58468;SDS011;44257;44.804;10.220;2023-05-10T03:48:08;10.95;;;7.53;;
58468;SDS011;44257;44.804;10.220;2023-05-10T03:50:34;13.25;;;7.75;;
58468;SDS011;44257;44.804;10.220;2023-05-10T03:52:59;9.93;;;7.32;;
58468;SDS011;44257;44.804;10.220;2023-05-10T03:55:27;10.38;;;7.00;;
58468;SDS011;44257;44.804;10.220;2023-05-10T03:57:53;10.50;;;6.97;;
58468;SDS011;44257;44.804;10.220;2023-05-10T04:00:21;10.43;;;7.65;;
58468;SDS011;44257;44.804;10.220;2023-05-10T04:02:49;9.50;;;7.13;;
58468;SDS011;44257;44.804;10.220;2023-05-10T04:05:18;11.13;;;7.30;;
58468;SDS011;44257;44.804;10.220;2023-05-10T04:07:44;8.73;;;7.07;;
58468;SDS011;44257;44.804;10.220;2023-05-10T04:10:12;8.43;;;6.78;;
58468;SDS011;44257;44.804;10.220;2023-05-10T04:12:38;9.52;;;6.72;;
58468;SDS011;44257;44.804;10.220;2023-05-10T04:15:04;10.20;;;6.60;;
58468;SDS011;44257;44.804;10.220;2023-05-10T04:17:30;9.20;;;6.78;;
58468;SDS011;44257;44.804;10.220;2023-05-10T04:19:56;9.48;;;6.72;;
58468;SDS011;44257;44.804;10.220;2023-05-10T04:22:22;9.18;;;6.78;;
58468;SDS011;44257;44.804;10.220;2023-05-10T04:24:47;9.50;;;6.47;;
58468;SDS011;44257;44.804;10.220;2023-05-10T04:27:13;8.77;;;6.05;;
58468;SDS011;44257;44.804;10.220;2023-05-10T04:29:39;8.52;;;6.30;;
58468;SDS011;44257;44.804;10.220;2023-05-10T04:32:05;9.10;;;6.03;;
58468;SDS011;44257;44.804;10.220;2023-05-10T04:34:31;9.77;;;7.18;;
58468;SDS011;44257;44.804;10.220;2023-05-10T04:36:59;10.45;;;6.82;;
58468;SDS011;44257;44.804;10.220;2023-05-10T04:39:25;9.05;;;5.95;;
58468;SDS011;44257;44.804;10.220;2023-05-10T04:41:50;9.23;;;7.10;;
58468;SDS011;44257;44.804;10.220;2023-05-10T04:44:16;10.50;;;6.88;;
58468;SDS011;44257;44.804;10.220;2023-05-10T04:46:42;8.95;;;6.90;;
58468;SDS011;44257;44.804;10.220;2023-05-10T04:49:08;11.15;;;7.75;;
58468;SDS011;44257;44.804;10.220;2023-05-10T04:51:34;10.43;;;7.05;;
58468;SDS011;44257;44.804;10.220;2023-05-10T04:53:59;12.02;;;6.78;;
58468;SDS011;44257;44.804;10.220;2023-05-10T04:56:25;8.00;;;6.65;;
58468;SDS011;44257;44.804;10.220;2023-05-10T04:58:51;9.00;;;6.47;;
58468;SDS011;44257;44.804;10.220;2023-05-10T05:01:17;8.77;;;6.80;;
58468;SDS011;44257;44.804;10.220;2023-05-10T05:03:42;10.30;;;6.85;;
58468;SDS011;44257;44.804;10.220;2023-05-10T05:06:08;9.30;;;6.97;;
58468;SDS011;44257;44.804;10.220;2023-05-10T05:08:34;9.32;;;6.53;;
58468;SDS011;44257;44.804;10.220;2023-05-10T05:11:00;12.30;;;7.05;;
58468;SDS011;44257;44.804;10.220;2023-05-10T05:13:26;8.70;;;7.03;;
58468;SDS011;44257;44.804;10.220;2023-05-10T05:15:51;9.15;;;6.88;;
58468;SDS011;44257;44.804;10.220;2023-05-10T05:18:19;9.63;;;5.97;;
58468;SDS011;44257;44.804;10.220;2023-05-10T05:20:45;8.43;;;6.07;;
58468;SDS011;44257;44.804;10.220;2023-05-10T05:23:11;8.25;;;6.25;;
58468;SDS011;44257;44.804;10.220;2023-05-10T05:25:37;9.15;;;6.60;;
58468;SDS011;44257;44.804;10.220;2023-05-10T05:28:02;8.68;;;6.00;;
58468;SDS011;44257;44.804;10.220;2023-05-10T05:30:28;8.52;;;6.05;;
58468;SDS011;44257;44.804;10.220;2023-05-10T05:32:54;8.65;;;6.15;;
58468;SDS011;44257;44.804;10.220;2023-05-10T05:35:20;10.40;;;7.50;;
58468;SDS011;44257;44.804;10.220;2023-05-10T05:37:46;10.15;;;6.97;;
58468;SDS011;44257;44.804;10.220;2023-05-10T05:40:14;10.35;;;7.95;;
58468;SDS011;44257;44.804;10.220;2023-05-10T05:42:40;12.38;;;8.13;;
58468;SDS011;44257;44.804;10.220;2023-05-10T05:45:06;9.95;;;7.82;;
58468;SDS011;44257;44.804;10.220;2023-05-10T05:47:33;9.80;;;7.28;;
58468;SDS011;44257;44.804;10.220;2023-05-10T05:49:59;9.63;;;7.47;;
58468;SDS011;44257;44.804;10.220;2023-05-10T05:52:25;9.32;;;7.57;;
58468;SDS011;44257;44.804;10.220;2023-05-10T05:54:51;9.85;;;7.10;;
58468;SDS011;44257;44.804;10.220;2023-05-10T05:57:17;9.02;;;6.57;;
58468;SDS011;44257;44.804;10.220;2023-05-10T05:59:42;11.30;;;7.97;;
58468;SDS011;44257;44.804;10.220;2023-05-10T06:02:09;10.18;;;7.45;;
58468;SDS011;44257;44.804;10.220;2023-05-10T06:04:35;11.25;;;7.95;;
58468;SDS011;44257;44.804;10.220;2023-05-10T06:07:01;10.60;;;8.07;;
58468;SDS011;44257;44.804;10.220;2023-05-10T06:09:27;11.95;;;8.20;;
58468;SDS011;44257;44.804;10.220;2023-05-10T06:11:53;14.18;;;7.68;;
58468;SDS011;44257;44.804;10.220;2023-05-10T06:14:21;11.07;;;8.27;;
58468;SDS011;44257;44.804;10.220;2023-05-10T06:16:47;10.48;;;7.65;;
58468;SDS011;44257;44.804;10.220;2023-05-10T06:19:13;11.68;;;7.75;;
58468;SDS011;44257;44.804;10.220;2023-05-10T06:21:39;9.20;;;6.88;;
58468;SDS011;44257;44.804;10.220;2023-05-10T06:24:05;10.45;;;7.88;;
58468;SDS011;44257;44.804;10.220;2023-05-10T06:26:31;9.93;;;8.05;;
58468;SDS011;44257;44.804;10.220;2023-05-10T06:28:59;11.32;;;7.78;;
58468;SDS011;44257;44.804;10.220;2023-05-10T06:31:25;10.15;;;7.82;;
58468;SDS011;44257;44.804;10.220;2023-05-10T06:33:51;10.80;;;7.90;;
58468;SDS011;44257;44.804;10.220;2023-05-10T06:36:16;9.98;;;7.25;;
58468;SDS011;44257;44.804;10.220;2023-05-10T06:38:42;10.70;;;7.95;;
58468;SDS011;44257;44.804;10.220;2023-05-10T06:41:08;11.82;;;7.57;;
58468;SDS011;44257;44.804;10.220;2023-05-10T06:43:34;11.18;;;7.70;;
58468;SDS011;44257;44.804;10.220;2023-05-10T06:46:00;11.05;;;7.72;;
58468;SDS011;44257;44.804;10.220;2023-05-10T06:48:25;10.63;;;7.55;;
58468;SDS011;44257;44.804;10.220;2023-05-10T06:50:51;9.73;;;7.10;;
58468;SDS011;44257;44.804;10.220;2023-05-10T06:53:17;10.15;;;7.75;;
58468;SDS011;44257;44.804;10.220;2023-05-10T06:55:43;10.60;;;7.85;;
58468;SDS011;44257;44.804;10.220;2023-05-10T06:58:08;10.05;;;7.38;;
58468;SDS011;44257;44.804;10.220;2023-05-10T07:00:34;9.05;;;7.22;;
58468;SDS011;44257;44.804;10.220;2023-05-10T07:03:04;9.52;;;7.55;;
58468;SDS011;44257;44.804;10.220;2023-05-10T07:05:30;9.15;;;6.55;;
58468;SDS011;44257;44.804;10.220;2023-05-10T07:07:55;10.88;;;7.25;;
58468;SDS011;44257;44.804;10.220;2023-05-10T07:10:21;9.63;;;7.05;;
58468;SDS011;44257;44.804;10.220;2023-05-10T07:12:47;8.95;;;6.50;;
58468;SDS011;44257;44.804;10.220;2023-05-10T07:15:13;9.70;;;6.50;;
58468;SDS011;44257;44.804;10.220;2023-05-10T07:17:38;11.02;;;6.70;;
58468;SDS011;44257;44.804;10.220;2023-05-10T07:20:04;11.70;;;6.10;;
58468;SDS011;44257;44.804;10.220;2023-05-10T07:22:31;10.90;;;6.75;;
58468;SDS011;44257;44.804;10.220;2023-05-10T07:24:57;10.35;;;6.63;;
58468;SDS011;44257;44.804;10.220;2023-05-10T07:27:22;9.68;;;7.38;;
58468;SDS011;44257;44.804;10.220;2023-05-10T07:29:48;11.75;;;7.40;;
58468;SDS011;44257;44.804;10.220;2023-05-10T07:32:14;8.90;;;6.63;;
58468;SDS011;44257;44.804;10.220;2023-05-10T07:34:39;9.88;;;7.10;;
58468;SDS011;44257;44.804;10.220;2023-05-10T07:37:05;9.90;;;6.72;;
58468;SDS011;44257;44.804;10.220;2023-05-10T07:39:31;10.50;;;6.40;;
58468;SDS011;44257;44.804;10.220;2023-05-10T07:41:57;8.68;;;6.40;;
58468;SDS011;44257;44.804;10.220;2023-05-10T07:44:23;9.65;;;6.53;;
58468;SDS011;44257;44.804;10.220;2023-05-10T07:46:48;11.70;;;6.75;;
58468;SDS011;44257;44.804;10.220;2023-05-10T07:49:16;9.73;;;7.20;;
58468;SDS011;44257;44.804;10.220;2023-05-10T07:51:41;9.35;;;7.35;;
58468;SDS011;44257;44.804;10.220;2023-05-10T07:54:07;10.82;;;7.85;;
58468;SDS011;44257;44.804;10.220;2023-05-10T07:56:33;12.13;;;6.55;;
58468;SDS011;44257;44.804;10.220;2023-05-10T07:59:00;11.43;;;6.97;;
58468;SDS011;44257;44.804;10.220;2023-05-10T08:01:26;9.32;;;6.40;;
58468;SDS011;44257;44.804;10.220;2023-05-10T08:03:55;10.10;;;6.90;;
58468;SDS011;44257;44.804;10.220;2023-05-10T08:06:21;12.63;;;7.55;;
58468;SDS011;44257;44.804;10.220;2023-05-10T08:08:47;10.32;;;6.28;;
58468;SDS011;44257;44.804;10.220;2023-05-10T08:11:19;6.53;;;4.60;;
58468;SDS011;44257;44.804;10.220;2023-05-10T08:13:45;12.52;;;6.70;;
58468;SDS011;44257;44.804;10.220;2023-05-10T08:16:12;10.75;;;6.22;;
58468;SDS011;44257;44.804;10.220;2023-05-10T08:18:38;9.73;;;6.60;;
58468;SDS011;44257;44.804;10.220;2023-05-10T08:21:05;8.88;;;6.25;;
58468;SDS011;44257;44.804;10.220;2023-05-10T08:23:31;10.23;;;6.53;;
58468;SDS011;44257;44.804;10.220;2023-05-10T08:25:57;9.48;;;6.65;;
58468;SDS011;44257;44.804;10.220;2023-05-10T08:28:22;10.48;;;6.03;;
58468;SDS011;44257;44.804;10.220;2023-05-10T08:30:49;12.15;;;6.28;;
58468;SDS011;44257;44.804;10.220;2023-05-10T08:33:15;9.30;;;6.20;;
58468;SDS011;44257;44.804;10.220;2023-05-10T08:35:42;10.27;;;6.50;;
58468;SDS011;44257;44.804;10.220;2023-05-10T08:38:08;9.15;;;6.18;;
58468;SDS011;44257;44.804;10.220;2023-05-10T08:40:34;9.82;;;5.82;;
58468;SDS011;44257;44.804;10.220;2023-05-10T08:43:04;8.45;;;5.65;;
58468;SDS011;44257;44.804;10.220;2023-05-10T08:45:33;9.57;;;5.65;;
58468;SDS011;44257;44.804;10.220;2023-05-10T08:48:02;9.15;;;5.88;;
58468;SDS011;44257;44.804;10.220;2023-05-10T08:50:30;10.27;;;5.90;;
58468;SDS011;44257;44.804;10.220;2023-05-10T08:52:57;11.02;;;6.45;;
58468;SDS011;44257;44.804;10.220;2023-05-10T08:55:26;9.73;;;5.80;;
58468;SDS011;44257;44.804;10.220;2023-05-10T08:57:53;10.15;;;6.40;;
58468;SDS011;44257;44.804;10.220;2023-05-10T09:00:18;9.55;;;6.20;;
58468;SDS011;44257;44.804;10.220;2023-05-10T09:02:46;10.70;;;5.82;;
58468;SDS011;44257;44.804;10.220;2023-05-10T09:05:14;10.63;;;6.63;;
58468;SDS011;44257;44.804;10.220;2023-05-10T09:07:41;9.35;;;6.03;;
58468;SDS011;44257;44.804;10.220;2023-05-10T09:10:08;8.73;;;6.30;;
58468;SDS011;44257;44.804;10.220;2023-05-10T09:12:35;10.95;;;6.32;;
58468;SDS011;44257;44.804;10.220;2023-05-10T09:15:02;8.68;;;5.68;;
58468;SDS011;44257;44.804;10.220;2023-05-10T09:17:29;7.75;;;5.93;;
58468;SDS011;44257;44.804;10.220;2023-05-10T09:20:02;8.88;;;5.63;;
58468;SDS011;44257;44.804;10.220;2023-05-10T09:22:32;8.57;;;5.68;;
58468;SDS011;44257;44.804;10.220;2023-05-10T09:27:38;7.30;;;5.00;;
58468;SDS011;44257;44.804;10.220;2023-05-10T09:30:05;8.82;;;5.70;;
58468;SDS011;44257;44.804;10.220;2023-05-10T09:32:39;8.63;;;5.35;;
58468;SDS011;44257;44.804;10.220;2023-05-10T09:35:07;8.13;;;5.30;;
58468;SDS011;44257;44.804;10.220;2023-05-10T09:37:33;7.38;;;5.38;;
58468;SDS011;44257;44.804;10.220;2023-05-10T09:39:59;8.43;;;5.35;;
58468;SDS011;44257;44.804;10.220;2023-05-10T09:42:24;7.28;;;4.78;;
58468;SDS011;44257;44.804;10.220;2023-05-10T09:44:50;7.47;;;5.20;;
58468;SDS011;44257;44.804;10.220;2023-05-10T09:47:19;7.47;;;5.50;;
58468;SDS011;44257;44.804;10.220;2023-05-10T09:49:50;7.82;;;5.45;;
58468;SDS011;44257;44.804;10.220;2023-05-10T09:52:18;7.63;;;5.28;;
58468;SDS011;44257;44.804;10.220;2023-05-10T09:54:52;9.50;;;5.35;;
58468;SDS011;44257;44.804;10.220;2023-05-10T09:57:22;8.90;;;5.38;;
58468;SDS011;44257;44.804;10.220;2023-05-10T09:59:49;7.35;;;4.88;;
58468;SDS011;44257;44.804;10.220;2023-05-10T10:02:15;7.28;;;4.72;;
58468;SDS011;44257;44.804;10.220;2023-05-10T10:04:43;6.68;;;4.63;;
58468;SDS011;44257;44.804;10.220;2023-05-10T10:07:09;6.68;;;4.40;;
58468;SDS011;44257;44.804;10.220;2023-05-10T10:09:35;7.10;;;4.90;;
58468;SDS011;44257;44.804;10.220;2023-05-10T10:12:01;7.53;;;4.68;;
58468;SDS011;44257;44.804;10.220;2023-05-10T10:14:27;6.32;;;4.13;;
58468;SDS011;44257;44.804;10.220;2023-05-10T10:16:54;6.18;;;4.57;;
58468;SDS011;44257;44.804;10.220;2023-05-10T10:19:20;6.75;;;5.10;;
58468;SDS011;44257;44.804;10.220;2023-05-10T10:21:49;8.70;;;5.03;;
58468;SDS011;44257;44.804;10.220;2023-05-10T10:24:16;7.95;;;5.35;;
58468;SDS011;44257;44.804;10.220;2023-05-10T10:26:42;6.68;;;4.97;;
58468;SDS011;44257;44.804;10.220;2023-05-10T10:35:16;8.52;;;4.75;;
58468;SDS011;44257;44.804;10.220;2023-05-10T10:37:43;6.20;;;4.20;;
58468;SDS011;44257;44.804;10.220;2023-05-10T10:48:34;6.88;;;4.43;;
58468;SDS011;44257;44.804;10.220;2023-05-10T10:51:00;5.63;;;3.88;;
58468;SDS011;44257;44.804;10.220;2023-05-10T10:53:27;5.13;;;3.90;;
58468;SDS011;44257;44.804;10.220;2023-05-10T10:58:52;7.25;;;3.03;;
58468;SDS011;44257;44.804;10.220;2023-05-10T11:01:24;5.85;;;3.65;;
58468;SDS011;44257;44.804;10.220;2023-05-10T11:06:31;4.15;;;2.67;;
58468;SDS011;44257;44.804;10.220;2023-05-10T11:08:58;4.82;;;2.95;;
58468;SDS011;44257;44.804;10.220;2023-05-10T11:11:31;4.88;;;2.95;;
58468;SDS011;44257;44.804;10.220;2023-05-10T11:14:02;4.65;;;2.78;;
58468;SDS011;44257;44.804;10.220;2023-05-10T11:16:40;4.07;;;2.47;;
58468;SDS011;44257;44.804;10.220;2023-05-10T11:19:10;5.32;;;3.35;;
58468;SDS011;44257;44.804;10.220;2023-05-10T11:24:13;4.43;;;2.97;;
58468;SDS011;44257;44.804;10.220;2023-05-10T11:26:40;4.80;;;2.55;;
58468;SDS011;44257;44.804;10.220;2023-05-10T11:29:07;4.75;;;2.90;;
58468;SDS011;44257;44.804;10.220;2023-05-10T11:31:33;4.93;;;3.30;;
58468;SDS011;44257;44.804;10.220;2023-05-10T11:33:59;4.55;;;3.20;;
58468;SDS011;44257;44.804;10.220;2023-05-10T11:36:31;4.45;;;3.35;;
58468;SDS011;44257;44.804;10.220;2023-05-10T11:38:59;4.75;;;3.25;;
58468;SDS011;44257;44.804;10.220;2023-05-10T11:41:25;5.85;;;3.70;;
58468;SDS011;44257;44.804;10.220;2023-05-10T11:43:54;5.20;;;3.47;;
58468;SDS011;44257;44.804;10.220;2023-05-10T11:46:26;4.55;;;3.22;;
58468;SDS011;44257;44.804;10.220;2023-05-10T11:48:55;5.43;;;3.58;;
58468;SDS011;44257;44.804;10.220;2023-05-10T11:51:26;5.95;;;3.80;;
58468;SDS011;44257;44.804;10.220;2023-05-10T11:53:53;4.55;;;3.08;;
58468;SDS011;44257;44.804;10.220;2023-05-10T11:56:20;4.55;;;3.35;;
58468;SDS011;44257;44.804;10.220;2023-05-10T11:58:51;5.30;;;3.78;;
58468;SDS011;44257;44.804;10.220;2023-05-10T12:01:21;5.28;;;3.35;;
58468;SDS011;44257;44.804;10.220;2023-05-10T12:03:49;5.15;;;3.53;;
58468;SDS011;44257;44.804;10.220;2023-05-10T12:06:17;4.78;;;3.72;;
58468;SDS011;44257;44.804;10.220;2023-05-10T12:08:46;5.82;;;3.60;;
58468;SDS011;44257;44.804;10.220;2023-05-10T12:11:13;6.05;;;4.00;;
58468;SDS011;44257;44.804;10.220;2023-05-10T12:13:43;4.72;;;3.83;;
58468;SDS011;44257;44.804;10.220;2023-05-10T12:16:14;6.20;;;3.72;;
58468;SDS011;44257;44.804;10.220;2023-05-10T12:18:43;6.60;;;4.35;;
58468;SDS011;44257;44.804;10.220;2023-05-10T12:21:10;5.05;;;3.97;;
58468;SDS011;44257;44.804;10.220;2023-05-10T12:23:37;5.43;;;4.07;;
58468;SDS011;44257;44.804;10.220;2023-05-10T12:26:03;7.22;;;4.25;;
58468;SDS011;44257;44.804;10.220;2023-05-10T12:28:30;6.65;;;4.28;;
58468;SDS011;44257;44.804;10.220;2023-05-10T12:30:57;5.80;;;4.00;;
58468;SDS011;44257;44.804;10.220;2023-05-10T12:33:24;5.63;;;3.78;;
58468;SDS011;44257;44.804;10.220;2023-05-10T12:35:52;5.95;;;3.78;;
58468;SDS011;44257;44.804;10.220;2023-05-10T12:40:52;5.15;;;4.13;;
58468;SDS011;44257;44.804;10.220;2023-05-10T12:43:17;4.80;;;3.85;;
58468;SDS011;44257;44.804;10.220;2023-05-10T12:45:43;5.80;;;3.75;;
58468;SDS011;44257;44.804;10.220;2023-05-10T12:48:13;5.22;;;3.80;;
58468;SDS011;44257;44.804;10.220;2023-05-10T12:50:39;5.90;;;4.15;;
58468;SDS011;44257;44.804;10.220;2023-05-10T12:53:05;7.05;;;4.68;;
58468;SDS011;44257;44.804;10.220;2023-05-10T12:55:30;4.68;;;3.83;;
58468;SDS011;44257;44.804;10.220;2023-05-10T12:57:56;4.65;;;3.67;;
58468;SDS011;44257;44.804;10.220;2023-05-10T13:00:22;4.72;;;3.50;;
58468;SDS011;44257;44.804;10.220;2023-05-10T13:02:48;5.32;;;3.38;;
58468;SDS011;44257;44.804;10.220;2023-05-10T13:05:14;5.32;;;3.58;;
58468;SDS011;44257;44.804;10.220;2023-05-10T13:07:39;5.63;;;3.80;;
58468;SDS011;44257;44.804;10.220;2023-05-10T13:10:06;5.03;;;3.80;;
58468;SDS011;44257;44.804;10.220;2023-05-10T13:12:32;5.72;;;3.72;;
58468;SDS011;44257;44.804;10.220;2023-05-10T13:14:58;6.15;;;4.22;;
58468;SDS011;44257;44.804;10.220;2023-05-10T13:17:25;5.22;;;3.92;;
58468;SDS011;44257;44.804;10.220;2023-05-10T13:19:51;5.53;;;4.03;;
58468;SDS011;44257;44.804;10.220;2023-05-10T13:22:16;5.05;;;3.80;;
58468;SDS011;44257;44.804;10.220;2023-05-10T13:24:42;5.15;;;3.85;;
58468;SDS011;44257;44.804;10.220;2023-05-10T13:27:08;6.15;;;3.97;;
58468;SDS011;44257;44.804;10.220;2023-05-10T13:29:34;5.82;;;4.38;;
58468;SDS011;44257;44.804;10.220;2023-05-10T13:32:00;5.60;;;4.05;;
58468;SDS011;44257;44.804;10.220;2023-05-10T13:34:26;5.47;;;3.80;;
58468;SDS011;44257;44.804;10.220;2023-05-10T13:36:52;4.50;;;3.38;;
58468;SDS011;44257;44.804;10.220;2023-05-10T13:39:19;4.97;;;3.60;;
58468;SDS011;44257;44.804;10.220;2023-05-10T13:41:45;7.28;;;3.70;;
58468;SDS011;44257;44.804;10.220;2023-05-10T13:44:12;4.88;;;3.17;;
58468;SDS011;44257;44.804;10.220;2023-05-10T13:46:39;4.85;;;3.55;;
58468;SDS011;44257;44.804;10.220;2023-05-10T13:49:08;4.57;;;3.30;;
58468;SDS011;44257;44.804;10.220;2023-05-10T13:51:35;5.55;;;3.63;;
58468;SDS011;44257;44.804;10.220;2023-05-10T13:54:01;4.15;;;3.40;;
58468;SDS011;44257;44.804;10.220;2023-05-10T13:56:27;5.88;;;3.78;;
58468;SDS011;44257;44.804;10.220;2023-05-10T13:58:53;6.15;;;3.85;;
58468;SDS011;44257;44.804;10.220;2023-05-10T14:01:19;5.40;;;3.65;;
58468;SDS011;44257;44.804;10.220;2023-05-10T14:03:45;4.47;;;3.08;;
58468;SDS011;44257;44.804;10.220;2023-05-10T14:06:11;6.03;;;3.53;;
58468;SDS011;44257;44.804;10.220;2023-05-10T14:08:36;4.20;;;3.42;;
58468;SDS011;44257;44.804;10.220;2023-05-10T14:11:02;5.07;;;3.70;;
58468;SDS011;44257;44.804;10.220;2023-05-10T14:13:28;6.00;;;3.72;;
58468;SDS011;44257;44.804;10.220;2023-05-10T14:15:54;5.45;;;3.92;;
58468;SDS011;44257;44.804;10.220;2023-05-10T14:18:21;5.30;;;3.78;;
58468;SDS011;44257;44.804;10.220;2023-05-10T14:20:47;5.22;;;3.60;;
58468;SDS011;44257;44.804;10.220;2023-05-10T14:23:14;5.20;;;3.70;;
58468;SDS011;44257;44.804;10.220;2023-05-10T14:25:40;5.07;;;3.63;;
58468;SDS011;44257;44.804;10.220;2023-05-10T14:28:06;5.05;;;3.92;;
58468;SDS011;44257;44.804;10.220;2023-05-10T14:30:32;5.65;;;3.55;;
58468;SDS011;44257;44.804;10.220;2023-05-10T14:32:59;4.65;;;3.22;;
58468;SDS011;44257;44.804;10.220;2023-05-10T14:35:28;4.82;;;3.10;;
58468;SDS011;44257;44.804;10.220;2023-05-10T14:37:56;4.82;;;3.13;;
58468;SDS011;44257;44.804;10.220;2023-05-10T14:40:22;4.53;;;3.38;;
58468;SDS011;44257;44.804;10.220;2023-05-10T14:42:49;4.47;;;3.03;;
58468;SDS011;44257;44.804;10.220;2023-05-10T14:45:15;5.57;;;3.28;;
58468;SDS011;44257;44.804;10.220;2023-05-10T14:47:41;4.07;;;3.10;;
58468;SDS011;44257;44.804;10.220;2023-05-10T14:50:07;5.50;;;3.35;;
58468;SDS011;44257;44.804;10.220;2023-05-10T14:52:33;4.70;;;3.10;;
58468;SDS011;44257;44.804;10.220;2023-05-10T14:54:59;5.30;;;3.30;;
58468;SDS011;44257;44.804;10.220;2023-05-10T14:57:26;4.55;;;3.20;;
58468;SDS011;44257;44.804;10.220;2023-05-10T14:59:54;4.32;;;3.47;;
58468;SDS011;44257;44.804;10.220;2023-05-10T15:02:21;4.70;;;3.47;;
58468;SDS011;44257;44.804;10.220;2023-05-10T15:04:47;4.60;;;3.30;;
58468;SDS011;44257;44.804;10.220;2023-05-10T15:07:13;5.13;;;3.67;;
58468;SDS011;44257;44.804;10.220;2023-05-10T15:09:41;6.28;;;3.70;;
58468;SDS011;44257;44.804;10.220;2023-05-10T15:12:07;6.10;;;4.20;;
58468;SDS011;44257;44.804;10.220;2023-05-10T15:14:33;5.60;;;4.00;;
58468;SDS011;44257;44.804;10.220;2023-05-10T15:17:00;7.38;;;4.47;;
58468;SDS011;44257;44.804;10.220;2023-05-10T15:19:26;6.30;;;4.60;;